sensor_id;sensor_type;location;lat;lon;timestamp;temperature;humidity
64111;DHT22;50401;48.188;11.566;2024-03-29T00:01:59;5.20;75.98
64111;DHT22;50401;48.188;11.566;2024-03-29T00:04:24;5.24;75.74
64111;DHT22;50401;48.188;11.566;2024-03-29T00:06:50;5.31;75.61
64111;DHT22;50401;48.188;11.566;2024-03-29T00:09:15;5.33;75.28
64111;DHT22;50401;48.188;11.566;2024-03-29T00:11:40;5.34;75.23
64111;DHT22;50401;48.188;11.566;2024-03-29T00:14:06;5.44;75.04
64111;DHT22;50401;48.188;11.566;2024-03-29T00:16:31;5.44;74.91
64111;DHT22;50401;48.188;11.566;2024-03-29T00:18:57;5.45;74.92
64111;DHT22;50401;48.188;11.566;2024-03-29T00:21:22;5.47;74.82
64111;DHT22;50401;48.188;11.566;2024-03-29T00:23:48;5.48;74.58
64111;DHT22;50401;48.188;11.566;2024-03-29T00:26:16;5.47;74.89
64111;DHT22;50401;48.188;11.566;2024-03-29T00:28:41;5.41;75.07
64111;DHT22;50401;48.188;11.566;2024-03-29T00:31:08;5.41;75.21
64111;DHT22;50401;48.188;11.566;2024-03-29T00:33:34;5.66;76.09
64111;DHT22;50401;48.188;11.566;2024-03-29T00:35:59;5.71;75.16
64111;DHT22;50401;48.188;11.566;2024-03-29T00:38:25;5.48;75.04
64111;DHT22;50401;48.188;11.566;2024-03-29T00:40:50;5.37;75.41
64111;DHT22;50401;48.188;11.566;2024-03-29T00:43:16;5.34;75.52
64111;DHT22;50401;48.188;11.566;2024-03-29T00:45:42;5.38;75.38
64111;DHT22;50401;48.188;11.566;2024-03-29T00:48:07;5.40;75.39
64111;DHT22;50401;48.188;11.566;2024-03-29T00:50:33;5.40;75.37
64111;DHT22;50401;48.188;11.566;2024-03-29T00:52:59;5.31;75.53
64111;DHT22;50401;48.188;11.566;2024-03-29T00:55:25;5.38;75.60
64111;DHT22;50401;48.188;11.566;2024-03-29T00:57:50;5.36;75.75
64111;DHT22;50401;48.188;11.566;2024-03-29T01:00:16;5.31;76.02
64111;DHT22;50401;48.188;11.566;2024-03-29T01:02:41;5.27;76.28
64111;DHT22;50401;48.188;11.566;2024-03-29T01:05:07;5.30;76.35
64111;DHT22;50401;48.188;11.566;2024-03-29T01:07:33;5.30;76.46
64111;DHT22;50401;48.188;11.566;2024-03-29T01:09:58;5.31;76.44
64111;DHT22;50401;48.188;11.566;2024-03-29T01:12:24;5.37;76.52
64111;DHT22;50401;48.188;11.566;2024-03-29T01:14:49;5.55;76.51
64111;DHT22;50401;48.188;11.566;2024-03-29T01:17:15;5.68;75.98
64111;DHT22;50401;48.188;11.566;2024-03-29T01:19:40;5.62;75.85
64111;DHT22;50401;48.188;11.566;2024-03-29T01:22:06;5.16;76.89
64111;DHT22;50401;48.188;11.566;2024-03-29T01:24:34;5.05;77.23
64111;DHT22;50401;48.188;11.566;2024-03-29T01:27:00;5.00;77.53
64111;DHT22;50401;48.188;11.566;2024-03-29T01:29:25;5.06;77.56
64111;DHT22;50401;48.188;11.566;2024-03-29T01:31:51;4.96;77.74
64111;DHT22;50401;48.188;11.566;2024-03-29T01:34:16;5.06;77.59
64111;DHT22;50401;48.188;11.566;2024-03-29T01:36:42;4.95;77.68
64111;DHT22;50401;48.188;11.566;2024-03-29T01:39:08;4.91;77.75
64111;DHT22;50401;48.188;11.566;2024-03-29T01:41:36;4.85;77.49
64111;DHT22;50401;48.188;11.566;2024-03-29T01:44:01;5.02;77.19
64111;DHT22;50401;48.188;11.566;2024-03-29T01:46:27;4.93;76.93
64111;DHT22;50401;48.188;11.566;2024-03-29T01:48:53;4.88;77.08
64111;DHT22;50401;48.188;11.566;2024-03-29T01:51:21;4.86;77.04
64111;DHT22;50401;48.188;11.566;2024-03-29T01:53:47;4.88;76.98
64111;DHT22;50401;48.188;11.566;2024-03-29T01:56:15;4.86;76.85
64111;DHT22;50401;48.188;11.566;2024-03-29T01:58:41;4.88;76.77
64111;DHT22;50401;48.188;11.566;2024-03-29T02:01:09;4.86;76.80
64111;DHT22;50401;48.188;11.566;2024-03-29T02:03:35;4.88;76.94
64111;DHT22;50401;48.188;11.566;2024-03-29T02:06:01;4.89;76.74
64111;DHT22;50401;48.188;11.566;2024-03-29T02:08:27;4.92;76.85
64111;DHT22;50401;48.188;11.566;2024-03-29T02:10:53;5.20;76.17
64111;DHT22;50401;48.188;11.566;2024-03-29T02:13:19;5.40;75.43
64111;DHT22;50401;48.188;11.566;2024-03-29T02:15:44;5.37;74.91
64111;DHT22;50401;48.188;11.566;2024-03-29T02:18:10;5.47;74.60
64111;DHT22;50401;48.188;11.566;2024-03-29T02:20:36;5.40;75.09
64111;DHT22;50401;48.188;11.566;2024-03-29T02:23:07;5.50;74.78
64111;DHT22;50401;48.188;11.566;2024-03-29T02:25:35;5.13;75.47
64111;DHT22;50401;48.188;11.566;2024-03-29T02:28:01;5.18;75.59
64111;DHT22;50401;48.188;11.566;2024-03-29T02:30:28;5.24;75.63
64111;DHT22;50401;48.188;11.566;2024-03-29T02:32:56;5.20;75.53
64111;DHT22;50401;48.188;11.566;2024-03-29T02:35:21;5.26;75.36
64111;DHT22;50401;48.188;11.566;2024-03-29T02:37:47;5.20;75.79
64111;DHT22;50401;48.188;11.566;2024-03-29T02:40:12;5.16;75.70
64111;DHT22;50401;48.188;11.566;2024-03-29T02:42:38;5.20;75.72
64111;DHT22;50401;48.188;11.566;2024-03-29T02:45:04;5.36;75.62
64111;DHT22;50401;48.188;11.566;2024-03-29T02:47:29;5.43;75.21
64111;DHT22;50401;48.188;11.566;2024-03-29T02:49:55;5.36;75.49
64111;DHT22;50401;48.188;11.566;2024-03-29T02:52:20;5.36;75.75
64111;DHT22;50401;48.188;11.566;2024-03-29T02:54:46;5.30;76.09
64111;DHT22;50401;48.188;11.566;2024-03-29T02:57:11;5.28;76.07
64111;DHT22;50401;48.188;11.566;2024-03-29T02:59:38;5.33;76.22
64111;DHT22;50401;48.188;11.566;2024-03-29T03:02:04;5.30;76.60
64111;DHT22;50401;48.188;11.566;2024-03-29T03:04:29;5.28;76.43
64111;DHT22;50401;48.188;11.566;2024-03-29T03:06:54;4.68;78.29
64111;DHT22;50401;48.188;11.566;2024-03-29T03:09:21;4.62;78.96
64111;DHT22;50401;48.188;11.566;2024-03-29T03:12:05;4.56;79.08
64111;DHT22;50401;48.188;11.566;2024-03-29T03:14:30;4.53;79.23
64111;DHT22;50401;48.188;11.566;2024-03-29T03:16:56;4.60;79.03
64111;DHT22;50401;48.188;11.566;2024-03-29T03:19:22;4.56;79.33
64111;DHT22;50401;48.188;11.566;2024-03-29T03:21:50;4.50;79.39
64111;DHT22;50401;48.188;11.566;2024-03-29T03:24:16;4.51;79.40
64111;DHT22;50401;48.188;11.566;2024-03-29T03:26:41;4.50;79.43
64111;DHT22;50401;48.188;11.566;2024-03-29T03:29:06;4.50;79.33
64111;DHT22;50401;48.188;11.566;2024-03-29T03:31:34;4.53;79.13
64111;DHT22;50401;48.188;11.566;2024-03-29T03:34:00;4.62;79.00
64111;DHT22;50401;48.188;11.566;2024-03-29T03:36:25;4.77;78.15
64111;DHT22;50401;48.188;11.566;2024-03-29T03:38:50;4.79;77.81
64111;DHT22;50401;48.188;11.566;2024-03-29T03:41:16;4.71;78.01
64111;DHT22;50401;48.188;11.566;2024-03-29T03:43:41;4.69;78.04
64111;DHT22;50401;48.188;11.566;2024-03-29T03:46:07;4.72;77.89
64111;DHT22;50401;48.188;11.566;2024-03-29T03:48:32;4.75;77.74
64111;DHT22;50401;48.188;11.566;2024-03-29T03:50:58;4.81;77.51
64111;DHT22;50401;48.188;11.566;2024-03-29T03:53:23;4.79;77.48
64111;DHT22;50401;48.188;11.566;2024-03-29T03:55:49;4.85;77.25
64111;DHT22;50401;48.188;11.566;2024-03-29T03:58:14;4.91;77.07
64111;DHT22;50401;48.188;11.566;2024-03-29T04:00:40;4.92;76.82
64111;DHT22;50401;48.188;11.566;2024-03-29T04:03:06;4.93;76.74
64111;DHT22;50401;48.188;11.566;2024-03-29T04:05:31;4.96;76.43
64111;DHT22;50401;48.188;11.566;2024-03-29T04:07:57;4.99;76.46
64111;DHT22;50401;48.188;11.566;2024-03-29T04:10:23;5.00;76.41
64111;DHT22;50401;48.188;11.566;2024-03-29T04:12:52;4.99;76.18
64111;DHT22;50401;48.188;11.566;2024-03-29T04:15:17;4.96;76.63
64111;DHT22;50401;48.188;11.566;2024-03-29T04:17:43;4.95;76.67
64111;DHT22;50401;48.188;11.566;2024-03-29T04:20:08;4.96;76.81
64111;DHT22;50401;48.188;11.566;2024-03-29T04:22:34;5.05;76.53
64111;DHT22;50401;48.188;11.566;2024-03-29T04:24:59;4.97;76.43
64111;DHT22;50401;48.188;11.566;2024-03-29T04:27:25;4.96;76.55
64111;DHT22;50401;48.188;11.566;2024-03-29T04:29:52;5.13;76.39
64111;DHT22;50401;48.188;11.566;2024-03-29T04:32:17;5.13;76.07
64111;DHT22;50401;48.188;11.566;2024-03-29T04:34:46;5.08;76.01
64111;DHT22;50401;48.188;11.566;2024-03-29T04:37:12;5.10;76.04
64111;DHT22;50401;48.188;11.566;2024-03-29T04:39:37;5.28;75.68
64111;DHT22;50401;48.188;11.566;2024-03-29T04:42:03;5.36;75.39
64111;DHT22;50401;48.188;11.566;2024-03-29T04:44:28;5.16;75.98
64111;DHT22;50401;48.188;11.566;2024-03-29T04:46:54;5.27;75.86
64111;DHT22;50401;48.188;11.566;2024-03-29T04:49:22;5.23;75.77
64111;DHT22;50401;48.188;11.566;2024-03-29T04:51:49;5.20;75.81
64111;DHT22;50401;48.188;11.566;2024-03-29T04:54:16;5.28;75.52
64111;DHT22;50401;48.188;11.566;2024-03-29T04:56:42;5.33;74.99
64111;DHT22;50401;48.188;11.566;2024-03-29T04:59:07;5.37;74.88
64111;DHT22;50401;48.188;11.566;2024-03-29T05:01:35;5.37;74.92
64111;DHT22;50401;48.188;11.566;2024-03-29T05:04:01;5.33;75.21
64111;DHT22;50401;48.188;11.566;2024-03-29T05:06:26;5.34;75.10
64111;DHT22;50401;48.188;11.566;2024-03-29T05:08:52;5.27;75.42
64111;DHT22;50401;48.188;11.566;2024-03-29T05:11:18;5.31;75.51
64111;DHT22;50401;48.188;11.566;2024-03-29T05:13:44;5.26;75.63
64111;DHT22;50401;48.188;11.566;2024-03-29T05:16:09;5.27;75.66
64111;DHT22;50401;48.188;11.566;2024-03-29T05:18:35;5.27;75.68
64111;DHT22;50401;48.188;11.566;2024-03-29T05:21:00;5.28;75.82
64111;DHT22;50401;48.188;11.566;2024-03-29T05:23:26;5.27;75.97
64111;DHT22;50401;48.188;11.566;2024-03-29T05:25:51;5.24;76.03
64111;DHT22;50401;48.188;11.566;2024-03-29T05:28:17;5.23;76.20
64111;DHT22;50401;48.188;11.566;2024-03-29T05:30:43;5.20;76.46
64111;DHT22;50401;48.188;11.566;2024-03-29T05:33:09;5.12;76.63
64111;DHT22;50401;48.188;11.566;2024-03-29T05:35:34;5.33;76.44
64111;DHT22;50401;48.188;11.566;2024-03-29T05:38:00;5.23;76.62
64111;DHT22;50401;48.188;11.566;2024-03-29T05:40:25;5.20;76.76
64111;DHT22;50401;48.188;11.566;2024-03-29T05:42:53;5.41;76.32
64111;DHT22;50401;48.188;11.566;2024-03-29T05:45:26;5.62;75.76
64111;DHT22;50401;48.188;11.566;2024-03-29T05:47:53;5.36;76.29
64111;DHT22;50401;48.188;11.566;2024-03-29T05:50:19;5.28;76.64
64111;DHT22;50401;48.188;11.566;2024-03-29T05:52:45;5.45;76.40
64111;DHT22;50401;48.188;11.566;2024-03-29T05:55:10;5.40;76.40
64111;DHT22;50401;48.188;11.566;2024-03-29T05:57:36;5.36;76.44
64111;DHT22;50401;48.188;11.566;2024-03-29T06:00:07;5.40;76.25
64111;DHT22;50401;48.188;11.566;2024-03-29T06:02:34;5.44;76.06
64111;DHT22;50401;48.188;11.566;2024-03-29T06:05:00;5.55;75.98
64111;DHT22;50401;48.188;11.566;2024-03-29T06:07:26;5.55;75.69
64111;DHT22;50401;48.188;11.566;2024-03-29T06:09:53;5.61;75.65
64111;DHT22;50401;48.188;11.566;2024-03-29T06:12:19;5.62;75.45
64111;DHT22;50401;48.188;11.566;2024-03-29T06:14:44;5.72;75.35
64111;DHT22;50401;48.188;11.566;2024-03-29T06:17:28;5.82;75.00
64111;DHT22;50401;48.188;11.566;2024-03-29T06:19:54;6.06;74.42
64111;DHT22;50401;48.188;11.566;2024-03-29T06:22:22;6.44;73.37
64111;DHT22;50401;48.188;11.566;2024-03-29T06:24:49;6.59;72.35
64111;DHT22;50401;48.188;11.566;2024-03-29T06:27:17;6.89;71.65
64111;DHT22;50401;48.188;11.566;2024-03-29T06:29:45;6.94;70.97
64111;DHT22;50401;48.188;11.566;2024-03-29T06:32:11;7.01;70.92
64111;DHT22;50401;48.188;11.566;2024-03-29T06:34:36;7.32;70.11
64111;DHT22;50401;48.188;11.566;2024-03-29T06:37:02;7.18;69.85
64111;DHT22;50401;48.188;11.566;2024-03-29T06:39:28;7.24;70.11
64111;DHT22;50401;48.188;11.566;2024-03-29T06:41:53;7.59;69.24
64111;DHT22;50401;48.188;11.566;2024-03-29T06:44:19;7.86;68.27
64111;DHT22;50401;48.188;11.566;2024-03-29T06:46:46;8.59;66.88
64111;DHT22;50401;48.188;11.566;2024-03-29T06:49:11;9.01;65.22
64111;DHT22;50401;48.188;11.566;2024-03-29T06:51:39;8.85;64.79
64111;DHT22;50401;48.188;11.566;2024-03-29T06:54:05;8.78;64.99
64111;DHT22;50401;48.188;11.566;2024-03-29T06:56:31;9.12;64.82
64111;DHT22;50401;48.188;11.566;2024-03-29T06:58:56;10.14;62.16
64111;DHT22;50401;48.188;11.566;2024-03-29T07:01:22;9.19;63.94
64111;DHT22;50401;48.188;11.566;2024-03-29T07:03:47;9.51;62.78
64111;DHT22;50401;48.188;11.566;2024-03-29T07:06:13;10.54;61.05
64111;DHT22;50401;48.188;11.566;2024-03-29T07:08:38;10.69;59.90
64111;DHT22;50401;48.188;11.566;2024-03-29T07:11:04;11.42;58.67
64111;DHT22;50401;48.188;11.566;2024-03-29T07:13:30;12.21;56.07
64111;DHT22;50401;48.188;11.566;2024-03-29T07:16:01;12.79;54.38
64111;DHT22;50401;48.188;11.566;2024-03-29T07:18:27;12.48;54.20
64111;DHT22;50401;48.188;11.566;2024-03-29T07:20:53;12.87;54.10
64111;DHT22;50401;48.188;11.566;2024-03-29T07:23:18;13.71;51.70
64111;DHT22;50401;48.188;11.566;2024-03-29T07:25:45;15.53;48.74
64111;DHT22;50401;48.188;11.566;2024-03-29T07:28:12;15.37;48.56
64111;DHT22;50401;48.188;11.566;2024-03-29T07:30:41;13.60;50.12
64111;DHT22;50401;48.188;11.566;2024-03-29T07:33:07;15.16;48.03
64111;DHT22;50401;48.188;11.566;2024-03-29T07:35:34;16.33;45.44
64111;DHT22;50401;48.188;11.566;2024-03-29T07:38:00;18.17;40.90
64111;DHT22;50401;48.188;11.566;2024-03-29T07:40:25;20.67;38.08
64111;DHT22;50401;48.188;11.566;2024-03-29T07:42:51;21.47;36.87
64111;DHT22;50401;48.188;11.566;2024-03-29T07:45:16;19.11;40.42
64111;DHT22;50401;48.188;11.566;2024-03-29T07:47:41;14.80;47.32
64111;DHT22;50401;48.188;11.566;2024-03-29T07:50:07;13.95;49.52
64111;DHT22;50401;48.188;11.566;2024-03-29T07:52:35;14.74;49.74
64111;DHT22;50401;48.188;11.566;2024-03-29T07:55:00;16.36;46.25
64111;DHT22;50401;48.188;11.566;2024-03-29T07:57:26;16.53;44.54
64111;DHT22;50401;48.188;11.566;2024-03-29T07:59:51;19.69;39.47
64111;DHT22;50401;48.188;11.566;2024-03-29T08:02:17;19.06;39.01
64111;DHT22;50401;48.188;11.566;2024-03-29T08:04:42;16.58;43.92
64111;DHT22;50401;48.188;11.566;2024-03-29T08:07:10;18.61;41.21
64111;DHT22;50401;48.188;11.566;2024-03-29T08:09:37;18.76;40.30
64111;DHT22;50401;48.188;11.566;2024-03-29T08:12:05;21.71;35.86
64111;DHT22;50401;48.188;11.566;2024-03-29T08:14:30;20.88;35.69
64111;DHT22;50401;48.188;11.566;2024-03-29T08:16:55;20.48;38.23
64111;DHT22;50401;48.188;11.566;2024-03-29T08:19:21;17.64;42.18
64111;DHT22;50401;48.188;11.566;2024-03-29T08:21:46;17.38;42.81
64111;DHT22;50401;48.188;11.566;2024-03-29T08:24:12;17.48;42.91
64111;DHT22;50401;48.188;11.566;2024-03-29T08:26:37;18.38;40.97
64111;DHT22;50401;48.188;11.566;2024-03-29T08:29:03;20.03;39.68
64111;DHT22;50401;48.188;11.566;2024-03-29T08:31:28;19.00;40.87
64111;DHT22;50401;48.188;11.566;2024-03-29T08:33:54;17.52;43.34
64111;DHT22;50401;48.188;11.566;2024-03-29T08:36:20;16.60;45.53
64111;DHT22;50401;48.188;11.566;2024-03-29T08:38:45;19.02;41.17
64111;DHT22;50401;48.188;11.566;2024-03-29T08:41:15;18.21;42.12
64111;DHT22;50401;48.188;11.566;2024-03-29T08:43:41;18.33;42.44
64111;DHT22;50401;48.188;11.566;2024-03-29T08:46:06;19.96;40.24
64111;DHT22;50401;48.188;11.566;2024-03-29T08:48:34;21.66;37.50
64111;DHT22;50401;48.188;11.566;2024-03-29T08:51:01;22.49;36.30
64111;DHT22;50401;48.188;11.566;2024-03-29T08:53:27;20.42;39.24
64111;DHT22;50401;48.188;11.566;2024-03-29T08:55:52;18.61;41.99
64111;DHT22;50401;48.188;11.566;2024-03-29T08:58:18;16.68;45.69
64111;DHT22;50401;48.188;11.566;2024-03-29T09:00:55;16.01;47.46
64111;DHT22;50401;48.188;11.566;2024-03-29T09:03:22;16.04;47.98
64111;DHT22;50401;48.188;11.566;2024-03-29T09:05:48;16.50;47.40
64111;DHT22;50401;48.188;11.566;2024-03-29T09:08:14;16.60;46.88
64111;DHT22;50401;48.188;11.566;2024-03-29T09:10:40;16.81;46.64
64111;DHT22;50401;48.188;11.566;2024-03-29T09:13:06;16.65;46.58
64111;DHT22;50401;48.188;11.566;2024-03-29T09:15:32;16.72;46.74
64111;DHT22;50401;48.188;11.566;2024-03-29T09:17:58;16.96;45.97
64111;DHT22;50401;48.188;11.566;2024-03-29T09:20:28;17.23;46.11
64111;DHT22;50401;48.188;11.566;2024-03-29T09:22:53;16.86;48.29
64111;DHT22;50401;48.188;11.566;2024-03-29T09:25:19;17.00;48.88
64111;DHT22;50401;48.188;11.566;2024-03-29T09:27:47;17.17;48.64
64111;DHT22;50401;48.188;11.566;2024-03-29T09:30:14;16.79;49.61
64111;DHT22;50401;48.188;11.566;2024-03-29T09:32:40;16.61;51.29
64111;DHT22;50401;48.188;11.566;2024-03-29T09:35:06;17.27;50.16
64111;DHT22;50401;48.188;11.566;2024-03-29T09:37:32;17.00;51.29
64111;DHT22;50401;48.188;11.566;2024-03-29T09:40:02;16.34;53.49
64111;DHT22;50401;48.188;11.566;2024-03-29T09:42:29;16.67;53.20
64111;DHT22;50401;48.188;11.566;2024-03-29T09:44:58;17.19;52.04
64111;DHT22;50401;48.188;11.566;2024-03-29T09:47:25;17.38;48.78
64111;DHT22;50401;48.188;11.566;2024-03-29T09:49:53;17.23;49.08
64111;DHT22;50401;48.188;11.566;2024-03-29T09:52:20;17.64;48.82
64111;DHT22;50401;48.188;11.566;2024-03-29T09:54:45;17.75;50.10
64111;DHT22;50401;48.188;11.566;2024-03-29T09:57:12;17.35;50.86
64111;DHT22;50401;48.188;11.566;2024-03-29T09:59:42;16.96;52.83
64111;DHT22;50401;48.188;11.566;2024-03-29T10:02:18;16.93;53.07
64111;DHT22;50401;48.188;11.566;2024-03-29T10:04:46;17.08;53.50
64111;DHT22;50401;48.188;11.566;2024-03-29T10:07:12;17.17;53.62
64111;DHT22;50401;48.188;11.566;2024-03-29T10:09:39;16.88;54.54
64111;DHT22;50401;48.188;11.566;2024-03-29T10:12:05;16.91;54.51
64111;DHT22;50401;48.188;11.566;2024-03-29T10:14:31;16.74;55.06
64111;DHT22;50401;48.188;11.566;2024-03-29T10:16:59;16.98;54.68
64111;DHT22;50401;48.188;11.566;2024-03-29T10:19:25;16.98;54.43
64111;DHT22;50401;48.188;11.566;2024-03-29T10:21:51;17.08;54.37
64111;DHT22;50401;48.188;11.566;2024-03-29T10:24:17;17.17;53.99
64111;DHT22;50401;48.188;11.566;2024-03-29T10:26:43;17.23;53.84
64111;DHT22;50401;48.188;11.566;2024-03-29T10:29:08;17.23;53.88
64111;DHT22;50401;48.188;11.566;2024-03-29T10:31:35;17.38;53.50
64111;DHT22;50401;48.188;11.566;2024-03-29T10:34:04;17.51;53.30
64111;DHT22;50401;48.188;11.566;2024-03-29T10:36:34;17.67;53.25
64111;DHT22;50401;48.188;11.566;2024-03-29T10:39:09;17.68;52.79
64111;DHT22;50401;48.188;11.566;2024-03-29T10:41:45;17.54;52.20
64111;DHT22;50401;48.188;11.566;2024-03-29T10:44:12;17.74;52.88
64111;DHT22;50401;48.188;11.566;2024-03-29T10:46:38;17.60;52.34
64111;DHT22;50401;48.188;11.566;2024-03-29T10:49:09;17.69;51.40
64111;DHT22;50401;48.188;11.566;2024-03-29T10:51:38;17.81;51.31
64111;DHT22;50401;48.188;11.566;2024-03-29T10:54:05;17.90;50.65
64111;DHT22;50401;48.188;11.566;2024-03-29T10:56:33;18.16;46.67
64111;DHT22;50401;48.188;11.566;2024-03-29T10:59:16;18.26;43.07
64111;DHT22;50401;48.188;11.566;2024-03-29T11:01:44;18.38;41.82
64111;DHT22;50401;48.188;11.566;2024-03-29T11:04:17;18.51;41.44
64111;DHT22;50401;48.188;11.566;2024-03-29T11:06:46;18.61;41.58
64111;DHT22;50401;48.188;11.566;2024-03-29T11:09:13;18.55;41.62
64111;DHT22;50401;48.188;11.566;2024-03-29T11:11:44;18.73;41.51
64111;DHT22;50401;48.188;11.566;2024-03-29T11:14:20;18.93;41.80
64111;DHT22;50401;48.188;11.566;2024-03-29T11:16:46;18.83;40.79
64111;DHT22;50401;48.188;11.566;2024-03-29T11:19:14;18.93;41.30
64111;DHT22;50401;48.188;11.566;2024-03-29T11:21:41;19.02;41.32
64111;DHT22;50401;48.188;11.566;2024-03-29T11:24:09;19.31;48.60
64111;DHT22;50401;48.188;11.566;2024-03-29T11:26:35;19.44;42.94
64111;DHT22;50401;48.188;11.566;2024-03-29T11:29:01;19.32;41.66
64111;DHT22;50401;48.188;11.566;2024-03-29T11:31:28;19.31;41.35
64111;DHT22;50401;48.188;11.566;2024-03-29T11:33:57;19.45;41.40
64111;DHT22;50401;48.188;11.566;2024-03-29T11:36:24;19.44;40.82
64111;DHT22;50401;48.188;11.566;2024-03-29T11:38:52;19.42;40.32
64111;DHT22;50401;48.188;11.566;2024-03-29T11:41:21;19.36;40.32
64111;DHT22;50401;48.188;11.566;2024-03-29T11:43:50;19.47;39.78
64111;DHT22;50401;48.188;11.566;2024-03-29T11:46:16;19.52;39.81
64111;DHT22;50401;48.188;11.566;2024-03-29T11:48:42;19.55;40.13
64111;DHT22;50401;48.188;11.566;2024-03-29T11:51:11;19.61;39.30
64111;DHT22;50401;48.188;11.566;2024-03-29T11:53:37;19.72;40.44
64111;DHT22;50401;48.188;11.566;2024-03-29T11:56:03;19.59;39.58
64111;DHT22;50401;48.188;11.566;2024-03-29T11:58:31;19.65;39.77
64111;DHT22;50401;48.188;11.566;2024-03-29T12:00:58;19.73;40.12
64111;DHT22;50401;48.188;11.566;2024-03-29T12:03:28;19.67;39.98
64111;DHT22;50401;48.188;11.566;2024-03-29T12:05:55;19.66;40.13
64111;DHT22;50401;48.188;11.566;2024-03-29T12:08:28;19.67;40.10
64111;DHT22;50401;48.188;11.566;2024-03-29T12:10:53;19.61;40.24
64111;DHT22;50401;48.188;11.566;2024-03-29T12:13:19;19.74;40.11
64111;DHT22;50401;48.188;11.566;2024-03-29T12:15:45;19.72;39.98
64111;DHT22;50401;48.188;11.566;2024-03-29T12:18:10;19.79;39.95
64111;DHT22;50401;48.188;11.566;2024-03-29T12:20:40;19.97;40.20
64111;DHT22;50401;48.188;11.566;2024-03-29T12:23:07;20.10;41.13
64111;DHT22;50401;48.188;11.566;2024-03-29T12:25:36;20.18;39.77
64111;DHT22;50401;48.188;11.566;2024-03-29T12:28:02;20.24;39.52
64111;DHT22;50401;48.188;11.566;2024-03-29T12:30:28;20.22;38.97
64111;DHT22;50401;48.188;11.566;2024-03-29T12:33:01;20.26;39.13
64111;DHT22;50401;48.188;11.566;2024-03-29T12:35:28;20.25;38.69
64111;DHT22;50401;48.188;11.566;2024-03-29T12:37:58;20.22;38.99
64111;DHT22;50401;48.188;11.566;2024-03-29T12:40:26;20.22;39.50
64111;DHT22;50401;48.188;11.566;2024-03-29T12:42:52;20.25;38.51
64111;DHT22;50401;48.188;11.566;2024-03-29T12:45:21;20.31;38.37
64111;DHT22;50401;48.188;11.566;2024-03-29T12:47:48;20.41;38.14
64111;DHT22;50401;48.188;11.566;2024-03-29T12:50:28;20.52;38.26
64111;DHT22;50401;48.188;11.566;2024-03-29T12:52:58;20.65;38.76
64111;DHT22;50401;48.188;11.566;2024-03-29T12:55:25;20.70;38.49
64111;DHT22;50401;48.188;11.566;2024-03-29T12:57:53;20.83;38.24
64111;DHT22;50401;48.188;11.566;2024-03-29T13:00:22;20.94;37.84
64111;DHT22;50401;48.188;11.566;2024-03-29T13:02:48;21.07;37.93
64111;DHT22;50401;48.188;11.566;2024-03-29T13:05:14;21.08;37.91
64111;DHT22;50401;48.188;11.566;2024-03-29T13:07:39;21.17;37.93
64111;DHT22;50401;48.188;11.566;2024-03-29T13:10:05;21.01;36.85
64111;DHT22;50401;48.188;11.566;2024-03-29T13:12:36;21.15;37.04
64111;DHT22;50401;48.188;11.566;2024-03-29T13:15:21;21.29;36.25
64111;DHT22;50401;48.188;11.566;2024-03-29T13:17:48;21.34;36.62
64111;DHT22;50401;48.188;11.566;2024-03-29T13:20:15;21.50;36.54
64111;DHT22;50401;48.188;11.566;2024-03-29T13:22:45;21.57;35.59
64111;DHT22;50401;48.188;11.566;2024-03-29T13:25:19;21.59;36.38
64111;DHT22;50401;48.188;11.566;2024-03-29T13:27:46;21.63;35.63
64111;DHT22;50401;48.188;11.566;2024-03-29T13:30:13;21.67;35.31
64111;DHT22;50401;48.188;11.566;2024-03-29T13:32:40;21.60;35.57
64111;DHT22;50401;48.188;11.566;2024-03-29T13:35:06;21.66;35.91
64111;DHT22;50401;48.188;11.566;2024-03-29T13:37:41;21.39;34.80
64111;DHT22;50401;48.188;11.566;2024-03-29T13:40:09;21.46;34.69
64111;DHT22;50401;48.188;11.566;2024-03-29T13:42:36;21.41;34.52
64111;DHT22;50401;48.188;11.566;2024-03-29T13:45:02;21.38;34.82
64111;DHT22;50401;48.188;11.566;2024-03-29T13:47:28;21.38;35.10
64111;DHT22;50401;48.188;11.566;2024-03-29T13:49:53;21.47;34.64
64111;DHT22;50401;48.188;11.566;2024-03-29T13:52:21;21.54;34.72
64111;DHT22;50401;48.188;11.566;2024-03-29T13:54:46;21.56;34.85
64111;DHT22;50401;48.188;11.566;2024-03-29T13:57:16;21.52;34.59
64111;DHT22;50401;48.188;11.566;2024-03-29T13:59:43;21.53;34.70
64111;DHT22;50401;48.188;11.566;2024-03-29T14:02:16;21.63;34.90
64111;DHT22;50401;48.188;11.566;2024-03-29T14:04:42;21.64;35.13
64111;DHT22;50401;48.188;11.566;2024-03-29T14:07:09;21.50;34.64
64111;DHT22;50401;48.188;11.566;2024-03-29T14:09:42;21.53;34.82
64111;DHT22;50401;48.188;11.566;2024-03-29T14:12:08;21.49;35.08
64111;DHT22;50401;48.188;11.566;2024-03-29T14:14:34;21.50;34.81
64111;DHT22;50401;48.188;11.566;2024-03-29T14:16:59;21.52;34.82
64111;DHT22;50401;48.188;11.566;2024-03-29T14:19:35;21.52;35.02
64111;DHT22;50401;48.188;11.566;2024-03-29T14:22:01;21.49;34.96
64111;DHT22;50401;48.188;11.566;2024-03-29T14:24:27;21.42;35.09
64111;DHT22;50401;48.188;11.566;2024-03-29T14:26:53;21.36;35.14
64111;DHT22;50401;48.188;11.566;2024-03-29T14:29:19;21.41;35.65
64111;DHT22;50401;48.188;11.566;2024-03-29T14:31:47;21.39;35.30
64111;DHT22;50401;48.188;11.566;2024-03-29T14:34:13;21.38;35.16
64111;DHT22;50401;48.188;11.566;2024-03-29T14:36:38;21.31;34.75
64111;DHT22;50401;48.188;11.566;2024-03-29T14:39:04;21.35;35.13
64111;DHT22;50401;48.188;11.566;2024-03-29T14:41:29;21.35;35.36
64111;DHT22;50401;48.188;11.566;2024-03-29T14:43:55;21.36;35.25
64111;DHT22;50401;48.188;11.566;2024-03-29T14:46:22;21.41;35.51
64111;DHT22;50401;48.188;11.566;2024-03-29T14:48:48;21.39;35.53
64111;DHT22;50401;48.188;11.566;2024-03-29T14:51:13;21.31;35.53
64111;DHT22;50401;48.188;11.566;2024-03-29T14:53:39;21.35;35.85
64111;DHT22;50401;48.188;11.566;2024-03-29T14:56:04;21.32;35.60
64111;DHT22;50401;48.188;11.566;2024-03-29T14:58:30;21.36;35.66
64111;DHT22;50401;48.188;11.566;2024-03-29T15:00:55;21.38;35.78
64111;DHT22;50401;48.188;11.566;2024-03-29T15:03:21;21.39;35.66
64111;DHT22;50401;48.188;11.566;2024-03-29T15:05:47;21.32;35.69
64111;DHT22;50401;48.188;11.566;2024-03-29T15:08:13;21.42;36.14
64111;DHT22;50401;48.188;11.566;2024-03-29T15:10:45;21.42;35.63
64111;DHT22;50401;48.188;11.566;2024-03-29T15:13:11;21.46;36.03
64111;DHT22;50401;48.188;11.566;2024-03-29T15:15:36;21.46;36.51
64111;DHT22;50401;48.188;11.566;2024-03-29T15:18:04;21.50;36.48
64111;DHT22;50401;48.188;11.566;2024-03-29T15:20:31;21.47;35.32